»·PEaware :: N331AB KLAS-KSBP

N331AB :: KLAS-KSBP

FLIGHT INFORMATION

Flight Status: Arrived
Operator: Privately registered:
United States
More flights under this callsign
Pilot: Lucky B. (4160)
Aircraft: BEECH AIRCRAFT PREMIER
(PRM1)
More flights by this aircraft type
Origin: KLAS McCarran Intl
United States
Destination: KSBP San Luis Co Regl
United States
More flights between these airports :: More routes between these airports
Route: +BOACH8 HEC PMD RZS MQO
File this flight plan on PilotEdge
Remarks:
Altitude:
(Current/Filed)
28,000ft
Speed:
(Current/Filed)
300kts
Departed: 29-Dec-17 10:28 PM
Arrived: 29-Dec-17 11:40 PM
Distance/Time
Traveled:
272nm/1:12
Distance/Time
To Go:
Arrived

Flight Plot

Page will automatically refresh every two minutes.

Flight plan parsing failed; only flown route is shown


Map Options




Map Legend


Flown Route
Filed Route
Departure Airport
Arrival Airport
Navaid (VOR, NDB)
Fix

Horizontal Profiles

Position Reports

Time Latitude Longitude Heading Altitude Ground
Speed
29-Dec-17 22:02 36.097974 -115.161728 0 2120ft 0kts
29-Dec-17 22:03 36.097978 -115.161728 359 2120ft 0kts
29-Dec-17 22:04 36.097982 -115.161728 359 2120ft 0kts
29-Dec-17 22:05 36.097986 -115.161728 359 2120ft 0kts
29-Dec-17 22:06 36.097990 -115.161728 0 2120ft 0kts
29-Dec-17 22:07 36.097994 -115.161728 0 2120ft 0kts
29-Dec-17 22:08 36.097998 -115.161728 0 2120ft 0kts
29-Dec-17 22:09 36.098002 -115.161728 0 2120ft 0kts
29-Dec-17 22:10 36.098006 -115.161728 0 2120ft 0kts
29-Dec-17 22:11 36.098010 -115.161728 0 2120ft 0kts
29-Dec-17 22:12 36.098014 -115.161728 0 2120ft 0kts
29-Dec-17 22:13 36.098018 -115.161728 0 2120ft 0kts
29-Dec-17 22:14 36.098022 -115.161728 0 2120ft 0kts
29-Dec-17 22:15 36.098026 -115.161728 0 2120ft 0kts
29-Dec-17 22:16 36.098030 -115.161728 0 2120ft 0kts
29-Dec-17 22:17 36.098033 -115.161728 0 2120ft 0kts
29-Dec-17 22:18 36.098036 -115.161728 0 2120ft 0kts
29-Dec-17 22:19 36.098039 -115.161728 359 2120ft 0kts
29-Dec-17 22:20 36.098041 -115.161728 0 2120ft 0kts
29-Dec-17 22:21 36.098044 -115.161728 0 2120ft 0kts
29-Dec-17 22:22 36.098047 -115.161728 0 2120ft 0kts
29-Dec-17 22:23 36.098050 -115.161728 0 2120ft 0kts
29-Dec-17 22:24 36.098326 -115.161503 66 2120ft 3kts
29-Dec-17 22:25 36.098358 -115.159536 25 2120ft 9kts
29-Dec-17 22:26 36.099742 -115.158476 75 2120ft 1kts
29-Dec-17 22:27 36.099776 -115.157282 87 2120ft 5kts
29-Dec-17 22:28 36.099764 -115.157153 107 2120ft 0kts
29-Dec-17 22:29 36.099763 -115.157151 107 2120ft 0kts
29-Dec-17 22:30 36.099763 -115.157148 107 2120ft 0kts
29-Dec-17 22:31 36.099593 -115.156719 127 2120ft 5kts
29-Dec-17 22:32 36.097403 -115.157588 205 2120ft 0kts
29-Dec-17 22:33 36.097401 -115.157590 205 2120ft 0kts
29-Dec-17 22:34 36.086072 -115.163991 203 2242ft 148kts
29-Dec-17 22:35 36.074686 -115.238967 259 5324ft 213kts
29-Dec-17 22:36 36.028985 -115.274220 200 6910ft 224kts
29-Dec-17 22:37 35.966135 -115.302798 189 6990ft 247kts
29-Dec-17 22:38 35.896497 -115.310472 185 7000ft 253kts
29-Dec-17 22:39 35.838284 -115.313107 173 7002ft 254kts
29-Dec-17 22:40 35.772247 -115.305380 174 8383ft 215kts
29-Dec-17 22:41 35.715095 -115.298870 174 11246ft 209kts
29-Dec-17 22:42 35.662643 -115.315289 229 14348ft 196kts
29-Dec-17 22:43 35.631466 -115.357783 227 17343ft 130kts
29-Dec-17 22:44 35.604514 -115.394057 227 18452ft 138kts
29-Dec-17 22:45 35.566493 -115.445150 227 18123ft 273kts
29-Dec-17 22:46 35.501588 -115.532252 227 18219ft 383kts
29-Dec-17 22:47 35.429942 -115.628097 227 19901ft 375kts
29-Dec-17 22:48 35.360464 -115.720766 227 21884ft 359kts
29-Dec-17 22:49 35.293298 -115.810104 229 23877ft 354kts
29-Dec-17 22:50 35.227466 -115.897444 228 25859ft 346kts
29-Dec-17 22:51 35.162717 -115.983127 227 27817ft 340kts
29-Dec-17 22:52 35.096147 -116.071012 227 28000ft 362kts
29-Dec-17 22:53 35.026486 -116.162723 227 28000ft 375kts
29-Dec-17 22:54 34.951320 -116.261422 227 28002ft 414kts
29-Dec-17 22:55 34.871192 -116.366303 227 28000ft 429kts
29-Dec-17 22:56 34.799759 -116.481879 250 28000ft 429kts
29-Dec-17 22:57 34.781377 -116.624455 264 28000ft 428kts
29-Dec-17 22:58 34.767118 -116.768665 264 28000ft 428kts
29-Dec-17 22:59 34.752813 -116.911836 263 28000ft 428kts
29-Dec-17 23:00 34.738251 -117.055888 263 27999ft 428kts
29-Dec-17 23:01 34.723527 -117.199816 263 28000ft 428kts
29-Dec-17 23:02 34.708670 -117.343328 263 28000ft 428kts
29-Dec-17 23:03 34.693640 -117.486837 263 27999ft 428kts
29-Dec-17 23:04 34.678379 -117.630877 263 28000ft 429kts
29-Dec-17 23:05 34.663053 -117.773879 263 28000ft 429kts
29-Dec-17 23:06 34.647480 -117.917558 263 28000ft 429kts
29-Dec-17 23:07 34.631766 -118.060878 263 27998ft 415kts
29-Dec-17 23:08 34.622299 -118.195730 266 27998ft 393kts
29-Dec-17 23:09 34.614134 -118.326860 266 27999ft 388kts
29-Dec-17 23:10 34.605493 -118.457010 266 28000ft 387kts
29-Dec-17 23:11 34.596519 -118.589018 266 26899ft 394kts
29-Dec-17 23:12 34.587300 -118.722274 266 24579ft 398kts
29-Dec-17 23:13 34.579247 -118.836750 266 23993ft 373kts
29-Dec-17 23:14 34.571154 -118.950476 265 23974ft 365kts
29-Dec-17 23:15 34.562377 -119.072021 265 21786ft 347kts
29-Dec-17 23:16 34.554152 -119.184414 266 19288ft 324kts
29-Dec-17 23:17 34.546526 -119.287249 266 16779ft 284kts
29-Dec-17 23:18 34.539835 -119.376618 266 14279ft 251kts
29-Dec-17 23:19 34.533592 -119.459392 266 11775ft 242kts
29-Dec-17 23:20 34.527441 -119.540140 266 9280ft 239kts
29-Dec-17 23:21 34.521987 -119.610902 266 8993ft 216kts
29-Dec-17 23:22 34.516663 -119.679644 266 8997ft 197kts
29-Dec-17 23:23 34.511557 -119.745230 266 8999ft 194kts
29-Dec-17 23:24 34.518896 -119.801906 285 8999ft 189kts
29-Dec-17 23:25 34.518707 -119.866032 268 9000ft 191kts
29-Dec-17 23:26 34.516079 -119.930875 268 9000ft 192kts
29-Dec-17 23:27 34.547644 -119.978033 330 7855ft 225kts
29-Dec-17 23:28 34.601866 -120.019069 327 5355ft 218kts
29-Dec-17 23:29 34.646290 -120.054677 327 3994ft 187kts
29-Dec-17 23:30 34.686153 -120.086966 327 3993ft 159kts
29-Dec-17 23:31 34.721732 -120.115833 326 4013ft 207kts
29-Dec-17 23:32 34.772763 -120.157206 328 4001ft 225kts
29-Dec-17 23:33 34.818690 -120.205430 318 3992ft 198kts
29-Dec-17 23:34 34.852962 -120.244285 318 3997ft 185kts
29-Dec-17 23:35 34.889746 -120.287303 315 3999ft 181kts
29-Dec-17 23:36 34.924776 -120.331600 315 3999ft 180kts
29-Dec-17 23:37 34.959518 -120.375583 315 4000ft 180kts
29-Dec-17 23:38 34.998373 -120.411644 348 4001ft 177kts
29-Dec-17 23:39 35.049437 -120.420804 351 3394ft 185kts
29-Dec-17 23:40 35.094735 -120.437094 340 3293ft 156kts
29-Dec-17 23:41 35.133239 -120.456555 336 3297ft 145kts
29-Dec-17 23:42 35.156587 -120.494941 293 3218ft 151kts
29-Dec-17 23:43 35.172476 -120.543242 300 2285ft 131kts
29-Dec-17 23:44 35.192923 -120.579728 309 1648ft 138kts
29-Dec-17 23:45 35.220902 -120.612480 308 639ft 137kts
29-Dec-17 23:46 35.238293 -120.642668 306 217ft 37kts
29-Dec-17 23:47 35.239628 -120.644284 22 217ft 1kts
29-Dec-17 23:48 35.238602 -120.641239 60 217ft 4kts
29-Dec-17 23:49 35.238918 -120.641186 322 217ft 0kts

Navigation Log

Ident Type
Flight plan parsing failed, navigation log unavailable